createdAt,value
2024-02-13T00:00:16.697Z,15.90
2024-02-13T00:01:19.695Z,13.32
2024-02-13T00:02:21.780Z,9.52
2024-02-13T00:03:25.740Z,15.15
2024-02-13T00:04:29.365Z,11.18
2024-02-13T00:05:31.299Z,13.57
2024-02-13T00:06:35.075Z,10.80
2024-02-13T00:07:40.804Z,14.48
2024-02-13T00:08:48.426Z,9.95
2024-02-13T00:09:51.001Z,14.52
2024-02-13T00:10:54.004Z,12.32
2024-02-13T00:11:55.740Z,14.70
2024-02-13T00:13:01.002Z,12.00
2024-02-13T00:14:05.214Z,11.52
2024-02-13T00:15:09.897Z,11.60
2024-02-13T00:16:11.590Z,9.20
2024-02-13T00:17:20.267Z,15.18
2024-02-13T00:18:21.980Z,14.60
2024-02-13T00:19:28.980Z,9.50
2024-02-13T00:20:31.162Z,11.57
2024-02-13T00:21:35.372Z,11.65
2024-02-13T00:22:37.534Z,12.93
2024-02-13T00:23:41.168Z,14.00
2024-02-13T00:24:45.233Z,12.85
2024-02-13T00:25:46.884Z,14.35
2024-02-13T00:26:54.488Z,13.20
2024-02-13T00:27:56.672Z,13.73
2024-02-13T00:29:01.294Z,14.32
2024-02-13T00:30:10.220Z,13.02
2024-02-13T00:31:11.872Z,12.05
2024-02-13T00:32:15.033Z,13.13
2024-02-13T00:33:19.866Z,14.90
2024-02-13T00:34:24.565Z,10.13
2024-02-13T00:35:27.174Z,11.98
2024-02-13T00:36:34.938Z,11.38
2024-02-13T00:37:41.804Z,10.95
2024-02-13T00:38:47.115Z,9.60
2024-02-13T00:39:51.895Z,8.50
2024-02-13T00:40:55.053Z,11.50
2024-02-13T00:41:56.727Z,11.20
2024-02-13T00:42:59.805Z,11.25
2024-02-13T00:44:03.705Z,10.25
2024-02-13T00:45:09.743Z,10.85
2024-02-13T00:46:11.569Z,10.35
2024-02-13T00:47:13.715Z,13.82
2024-02-13T00:48:19.521Z,12.20
2024-02-13T00:49:21.347Z,16.95
2024-02-13T00:50:23.519Z,11.05
2024-02-13T00:51:28.657Z,12.65
2024-02-13T00:52:30.648Z,8.02
2024-02-13T00:53:32.609Z,12.85
2024-02-13T00:54:35.265Z,13.23
2024-02-13T00:55:38.842Z,11.35
2024-02-13T00:56:44.773Z,13.85
2024-02-13T00:57:48.881Z,11.23
2024-02-13T00:58:50.614Z,12.20
2024-02-13T00:59:53.727Z,13.77
2024-02-13T01:00:55.655Z,13.25
2024-02-13T01:01:59.090Z,8.88
2024-02-13T01:03:03.519Z,12.50
2024-02-13T01:04:05.780Z,10.90
2024-02-13T01:05:08.975Z,8.90
2024-02-13T01:06:10.837Z,9.38
2024-02-13T01:07:15.656Z,12.10
2024-02-13T01:08:25.216Z,12.38
2024-02-13T01:09:26.890Z,11.00
2024-02-13T01:10:29.956Z,14.80
2024-02-13T01:11:32.487Z,12.27
2024-02-13T01:12:35.684Z,10.07
2024-02-13T01:13:39.271Z,8.95
2024-02-13T01:14:40.877Z,9.70
2024-02-13T01:15:44.932Z,10.27
2024-02-13T01:16:46.511Z,11.75
2024-02-13T01:17:49.025Z,10.55
2024-02-13T01:18:53.659Z,11.35
2024-02-13T01:19:55.760Z,13.43
2024-02-13T01:20:58.741Z,11.80
2024-02-13T01:22:01.956Z,10.00
2024-02-13T01:23:04.983Z,9.07
2024-02-13T01:24:06.614Z,11.77
2024-02-13T01:25:11.666Z,15.07
2024-02-13T01:26:15.145Z,11.35
2024-02-13T01:27:16.787Z,13.13
2024-02-13T01:28:20.914Z,12.15
2024-02-13T01:29:24.592Z,13.68
2024-02-13T01:30:26.281Z,11.20
2024-02-13T01:31:28.592Z,9.75
2024-02-13T01:32:30.366Z,11.05
2024-02-13T01:33:32.288Z,10.15
2024-02-13T01:34:35.599Z,13.07
2024-02-13T01:35:44.144Z,9.88
2024-02-13T01:36:46.040Z,10.07
2024-02-13T01:37:48.357Z,11.88
2024-02-13T01:38:50.446Z,13.35
2024-02-13T01:39:52.351Z,10.95
2024-02-13T01:40:54.952Z,13.10
2024-02-13T01:41:59.479Z,17.17
2024-02-13T01:43:01.043Z,15.60
2024-02-13T01:44:05.479Z,16.95
2024-02-13T01:45:09.761Z,14.38
2024-02-13T01:46:13.393Z,13.40
2024-02-13T01:47:15.844Z,13.32
2024-02-13T01:48:22.341Z,13.88
2024-02-13T01:49:25.666Z,12.38
2024-02-13T01:50:29.792Z,16.15
2024-02-13T01:51:35.425Z,11.38
2024-02-13T01:52:41.560Z,12.20
2024-02-13T01:53:45.997Z,15.13
2024-02-13T01:54:49.605Z,13.27
2024-02-13T01:55:51.701Z,13.60
2024-02-13T01:56:55.548Z,13.02
2024-02-13T01:58:00.687Z,10.55
2024-02-13T01:59:05.136Z,13.45
2024-02-13T02:00:15.123Z,11.45
2024-02-13T02:01:16.793Z,15.57
2024-02-13T02:02:19.835Z,12.40
2024-02-13T02:03:21.772Z,16.73
2024-02-13T02:04:28.679Z,13.35
2024-02-13T02:05:34.385Z,9.27
2024-02-13T02:06:36.297Z,14.05
2024-02-13T02:07:44.524Z,13.05
2024-02-13T02:08:49.028Z,12.00
2024-02-13T02:09:50.832Z,12.30
2024-02-13T02:10:54.243Z,11.80
2024-02-13T02:11:56.355Z,9.02
2024-02-13T02:13:00.428Z,11.15
2024-02-13T02:14:03.999Z,11.75
2024-02-13T02:15:06.450Z,12.93
2024-02-13T02:16:09.903Z,12.63
2024-02-13T02:17:12.121Z,12.45
2024-02-13T02:18:16.312Z,12.65
2024-02-13T02:19:18.504Z,11.98
2024-02-13T02:20:21.273Z,12.75
2024-02-13T02:21:23.693Z,12.20
2024-02-13T02:22:25.800Z,11.13
2024-02-13T02:23:29.886Z,14.93
2024-02-13T02:24:31.991Z,11.52
2024-02-13T02:25:35.787Z,11.13
2024-02-13T02:26:40.067Z,9.65
2024-02-13T02:27:41.844Z,13.90
2024-02-13T02:28:47.039Z,11.02
2024-02-13T02:29:51.402Z,9.05
2024-02-13T02:30:54.064Z,13.10
2024-02-13T02:31:55.906Z,13.10
2024-02-13T02:32:59.464Z,11.05
2024-02-13T02:34:03.646Z,13.63
2024-02-13T02:35:06.028Z,11.15
2024-02-13T02:36:09.208Z,15.38
2024-02-13T02:37:10.829Z,10.70
2024-02-13T02:38:14.264Z,13.90
2024-02-13T02:39:15.912Z,11.10
2024-02-13T02:40:20.997Z,9.15
2024-02-13T02:41:24.350Z,15.15
2024-02-13T02:42:25.976Z,10.60
2024-02-13T02:43:29.105Z,10.40
2024-02-13T02:44:30.822Z,8.10
2024-02-13T02:45:34.814Z,15.18
2024-02-13T02:46:37.093Z,11.55
2024-02-13T02:47:41.013Z,12.15
2024-02-13T02:48:44.369Z,12.88
2024-02-13T02:49:46.754Z,11.85
2024-02-13T02:50:50.318Z,10.43
2024-02-13T02:51:51.966Z,11.75
2024-02-13T02:52:55.168Z,13.07
2024-02-13T02:53:57.196Z,8.43
2024-02-13T02:55:00.756Z,14.77
2024-02-13T02:56:04.139Z,8.80
2024-02-13T02:57:06.597Z,11.70
2024-02-13T02:58:09.877Z,10.02
2024-02-13T02:59:11.549Z,10.88
2024-02-13T03:00:16.126Z,11.13
2024-02-13T03:01:19.778Z,10.75
2024-02-13T03:02:21.925Z,12.35
2024-02-13T03:03:25.189Z,13.05
2024-02-13T03:04:26.877Z,12.57
2024-02-13T03:05:30.638Z,8.05
2024-02-13T03:06:33.760Z,9.30
2024-02-13T03:07:35.670Z,12.55
2024-02-13T03:08:38.146Z,10.55
2024-02-13T03:09:40.144Z,9.27
2024-02-13T03:10:44.401Z,13.50
2024-02-13T03:11:46.592Z,13.60
2024-02-13T03:12:49.679Z,12.30
2024-02-13T03:13:51.770Z,10.93
2024-02-13T03:14:55.506Z,9.85
2024-02-13T03:15:57.162Z,11.98
2024-02-13T03:17:00.445Z,9.18
2024-02-13T03:18:04.757Z,8.82
2024-02-13T03:19:07.247Z,10.50
2024-02-13T03:20:12.412Z,9.30
2024-02-13T03:21:16.051Z,13.13
2024-02-13T03:22:25.981Z,9.35
2024-02-13T03:23:28.363Z,10.27
2024-02-13T03:24:30.784Z,10.45
2024-02-13T03:25:33.855Z,9.30
2024-02-13T03:26:35.953Z,10.80
2024-02-13T03:27:38.861Z,12.55
2024-02-13T03:28:40.879Z,8.82
2024-02-13T03:29:43.459Z,10.65
2024-02-13T03:30:45.447Z,13.73
2024-02-13T03:31:47.041Z,9.63
2024-02-13T03:32:50.875Z,8.32
2024-02-13T03:33:55.020Z,10.90
2024-02-13T03:34:57.791Z,11.60
2024-02-13T03:36:01.045Z,10.73
2024-02-13T03:37:03.595Z,9.55
2024-02-13T03:38:05.538Z,9.60
2024-02-13T03:39:08.271Z,8.63
2024-02-13T03:40:11.214Z,9.75
2024-02-13T03:41:13.590Z,8.55
2024-02-13T03:42:17.085Z,12.82
2024-02-13T03:43:20.158Z,12.35
2024-02-13T03:44:26.648Z,8.85
2024-02-13T03:45:30.120Z,11.48
2024-02-13T03:46:31.712Z,12.15
2024-02-13T03:47:35.234Z,10.52
2024-02-13T03:48:39.292Z,10.02
2024-02-13T03:49:42.181Z,9.77
2024-02-13T03:50:46.271Z,7.93
2024-02-13T03:51:48.635Z,7.75
2024-02-13T03:52:50.217Z,14.38
2024-02-13T03:53:51.843Z,9.48
2024-02-13T03:54:54.985Z,11.85
2024-02-13T03:55:56.757Z,8.75
2024-02-13T03:57:01.975Z,8.75
2024-02-13T03:58:05.281Z,13.27
2024-02-13T03:59:07.023Z,9.48
2024-02-13T04:00:11.936Z,9.02
2024-02-13T04:01:15.334Z,9.98
2024-02-13T04:02:17.171Z,10.48
2024-02-13T04:03:20.359Z,9.63
2024-02-13T04:04:26.416Z,8.57
2024-02-13T04:05:29.270Z,7.28
2024-02-13T04:06:35.354Z,9.23
2024-02-13T04:07:37.122Z,10.43
2024-02-13T04:08:46.181Z,9.82
2024-02-13T04:09:48.678Z,11.70
2024-02-13T04:10:51.224Z,8.70
2024-02-13T04:11:54.879Z,13.23
2024-02-13T04:12:56.703Z,10.20
2024-02-13T04:14:00.408Z,8.52
2024-02-13T04:15:04.341Z,7.50
2024-02-13T04:16:10.290Z,11.27
2024-02-13T04:17:12.055Z,11.75
2024-02-13T04:18:15.967Z,9.65
2024-02-13T04:19:20.628Z,9.07
2024-02-13T04:20:23.791Z,9.85
2024-02-13T04:21:25.629Z,7.20
2024-02-13T04:22:28.010Z,11.50
2024-02-13T04:23:31.318Z,8.95
2024-02-13T04:24:33.783Z,8.63
2024-02-13T04:25:39.145Z,9.13
2024-02-13T04:26:43.942Z,8.35
2024-02-13T04:27:46.091Z,8.25
2024-02-13T04:28:50.497Z,8.32
2024-02-13T04:29:53.370Z,9.70
2024-02-13T04:30:55.416Z,11.57
2024-02-13T04:31:57.081Z,8.02
2024-02-13T04:33:00.414Z,10.75
2024-02-13T04:34:02.524Z,10.00
2024-02-13T04:35:06.738Z,6.63
2024-02-13T04:36:10.654Z,14.25
2024-02-13T04:37:14.017Z,9.20
2024-02-13T04:38:15.766Z,8.25
2024-02-13T04:39:18.636Z,7.53
2024-02-13T04:40:20.481Z,8.27
2024-02-13T04:41:22.202Z,10.02
2024-02-13T04:42:36.852Z,10.95
2024-02-13T04:43:40.021Z,11.05
2024-02-13T04:44:41.890Z,10.18
2024-02-13T04:45:45.175Z,9.32
2024-02-13T04:46:46.744Z,8.07
2024-02-13T04:47:50.124Z,6.80
2024-02-13T04:48:55.096Z,7.50
2024-02-13T04:50:02.025Z,7.68
2024-02-13T04:51:06.292Z,11.25
2024-02-13T04:52:12.440Z,6.10
2024-02-13T04:53:21.900Z,10.02
2024-02-13T04:54:25.603Z,9.85
2024-02-13T04:55:27.469Z,8.60
2024-02-13T04:56:30.505Z,7.25
2024-02-13T04:57:35.167Z,7.63
2024-02-13T04:58:39.224Z,9.50
2024-02-13T04:59:50.089Z,8.02
2024-02-13T05:01:04.147Z,7.38
2024-02-13T05:02:07.037Z,8.93
2024-02-13T05:03:28.727Z,7.25
2024-02-13T05:04:30.424Z,7.82
2024-02-13T05:05:50.659Z,8.10
2024-02-13T05:07:10.965Z,5.90
2024-02-13T05:08:13.454Z,7.13
2024-02-13T05:09:16.524Z,5.65
2024-02-13T05:10:19.445Z,9.88
2024-02-13T05:11:21.332Z,6.18
2024-02-13T05:12:24.968Z,9.15
2024-02-13T05:13:26.598Z,7.88
2024-02-13T05:14:29.638Z,8.35
2024-02-13T05:15:31.251Z,7.07
2024-02-13T05:16:34.154Z,8.93
2024-02-13T05:17:36.367Z,8.65
2024-02-13T05:18:40.076Z,11.23
2024-02-13T05:19:41.819Z,8.35
2024-02-13T05:20:46.808Z,8.13
2024-02-13T05:21:51.882Z,8.27
2024-02-13T05:22:55.144Z,9.82
2024-02-13T05:23:56.833Z,9.48
2024-02-13T05:25:03.363Z,7.10
2024-02-13T05:26:08.968Z,7.90
2024-02-13T05:27:11.842Z,7.10
2024-02-13T05:28:14.536Z,9.20
2024-02-13T05:29:16.163Z,8.88
2024-02-13T05:30:19.523Z,6.88
2024-02-13T05:31:21.894Z,11.02
2024-02-13T05:32:25.243Z,9.43
2024-02-13T05:33:27.049Z,10.57
2024-02-13T05:34:30.165Z,8.80
2024-02-13T05:35:32.046Z,8.80
2024-02-13T05:36:35.406Z,8.68
2024-02-13T05:37:39.583Z,7.68
2024-02-13T05:38:45.137Z,7.55
2024-02-13T05:39:47.026Z,8.57
2024-02-13T05:40:50.205Z,8.68
2024-02-13T05:41:53.525Z,10.43
2024-02-13T05:42:56.044Z,7.88
2024-02-13T05:43:58.059Z,7.57
2024-02-13T05:45:00.058Z,9.00
2024-02-13T05:46:01.734Z,7.50
2024-02-13T05:47:04.769Z,10.43
2024-02-13T05:48:07.198Z,9.85
2024-02-13T05:49:10.534Z,9.55
2024-02-13T05:50:13.756Z,13.95
2024-02-13T05:51:16.475Z,7.50
2024-02-13T05:52:20.557Z,6.82
2024-02-13T05:53:23.537Z,12.50
2024-02-13T05:54:25.917Z,11.60
2024-02-13T05:55:29.794Z,9.52
2024-02-13T05:56:36.272Z,8.98
2024-02-13T05:57:39.380Z,8.90
2024-02-13T05:58:41.052Z,9.95
2024-02-13T05:59:43.698Z,11.30
2024-02-13T06:00:46.667Z,9.20
2024-02-13T06:01:50.195Z,10.52
2024-02-13T06:02:56.247Z,9.48
2024-02-13T06:04:03.585Z,10.57
2024-02-13T06:05:08.974Z,8.85
2024-02-13T06:06:10.719Z,10.90
2024-02-13T06:07:13.858Z,10.55
2024-02-13T06:08:15.630Z,10.27
2024-02-13T06:09:23.640Z,8.93
2024-02-13T06:10:26.101Z,9.13
2024-02-13T06:11:31.320Z,10.65
2024-02-13T06:12:35.468Z,11.10
2024-02-13T06:13:41.226Z,8.57
2024-02-13T06:14:44.965Z,9.40
2024-02-13T06:15:46.789Z,11.23
2024-02-13T06:16:49.406Z,11.68
2024-02-13T06:17:51.220Z,9.85
2024-02-13T06:18:53.919Z,9.15
2024-02-13T06:19:56.231Z,11.50
2024-02-13T06:21:00.005Z,7.07
2024-02-13T06:22:01.648Z,11.55
2024-02-13T06:23:05.459Z,9.73
2024-02-13T06:24:08.995Z,11.43
2024-02-13T06:25:15.059Z,9.40
2024-02-13T06:26:16.656Z,11.50
2024-02-13T06:27:20.423Z,10.27
2024-02-13T06:28:23.705Z,12.40
2024-02-13T06:29:25.932Z,12.02
2024-02-13T06:30:29.186Z,10.35
2024-02-13T06:31:35.483Z,8.93
2024-02-13T06:32:38.769Z,12.50
2024-02-13T06:33:40.926Z,11.40
2024-02-13T06:34:43.117Z,9.30
2024-02-13T06:35:45.392Z,15.48
2024-02-13T06:36:47.170Z,16.17
2024-02-13T06:37:51.211Z,20.23
2024-02-13T06:38:55.931Z,16.02
2024-02-13T06:39:58.430Z,20.73
2024-02-13T06:41:00.701Z,11.80
2024-02-13T06:42:05.646Z,13.63
2024-02-13T06:43:08.033Z,11.60
2024-02-13T06:44:11.974Z,14.52
2024-02-13T06:45:15.945Z,13.82
2024-02-13T06:46:19.421Z,13.98
2024-02-13T06:47:21.190Z,15.60
2024-02-13T06:48:25.146Z,14.40
2024-02-13T06:49:29.124Z,12.65
2024-02-13T06:50:35.433Z,14.30
2024-02-13T06:51:38.987Z,16.88
2024-02-13T06:52:41.900Z,15.52
2024-02-13T06:53:45.210Z,17.05
2024-02-13T06:54:50.475Z,18.60
2024-02-13T06:55:53.753Z,18.40
2024-02-13T06:56:55.888Z,18.60
2024-02-13T06:57:58.597Z,17.30
2024-02-13T06:59:00.418Z,24.05
2024-02-13T07:00:09.884Z,21.40
2024-02-13T07:01:14.713Z,14.80
2024-02-13T07:02:16.887Z,14.18
2024-02-13T07:03:20.982Z,19.20
2024-02-13T07:04:25.544Z,17.92
2024-02-13T07:05:29.615Z,17.15
2024-02-13T07:06:43.043Z,17.08
2024-02-13T07:07:53.912Z,17.35
2024-02-13T07:08:55.762Z,16.83
2024-02-13T07:09:58.686Z,16.38
2024-02-13T07:11:00.693Z,18.27
2024-02-13T07:12:03.685Z,15.73
2024-02-13T07:13:05.395Z,15.65
2024-02-13T07:14:07.008Z,18.25
2024-02-13T07:15:10.519Z,18.98
2024-02-13T07:16:13.349Z,16.85
2024-02-13T07:17:15.407Z,19.90
2024-02-13T07:18:18.232Z,19.33
2024-02-13T07:19:20.893Z,19.80
2024-02-13T07:20:24.714Z,19.75
2024-02-13T07:21:29.599Z,17.33
2024-02-13T07:22:31.655Z,17.85
2024-02-13T07:23:35.345Z,22.17
2024-02-13T07:24:38.353Z,17.58
2024-02-13T07:25:40.497Z,17.33
2024-02-13T07:26:42.313Z,18.90
2024-02-13T07:27:45.202Z,19.65
2024-02-13T07:28:46.846Z,21.90
2024-02-13T07:29:51.848Z,20.33
2024-02-13T07:30:55.317Z,18.25
2024-02-13T07:31:56.971Z,19.27
2024-02-13T07:33:00.426Z,23.05
2024-02-13T07:34:04.668Z,19.92
2024-02-13T07:35:06.666Z,20.75
2024-02-13T07:36:11.003Z,20.70
2024-02-13T07:37:14.550Z,20.20
2024-02-13T07:38:16.164Z,21.15
2024-02-13T07:39:18.305Z,23.65
2024-02-13T07:40:20.354Z,17.25
2024-02-13T07:41:21.989Z,16.80
2024-02-13T07:42:26.390Z,21.17
2024-02-13T07:43:29.503Z,21.98
2024-02-13T07:44:31.105Z,22.25
2024-02-13T07:45:33.474Z,23.25
2024-02-13T07:46:35.202Z,18.23
2024-02-13T07:47:36.969Z,24.25
2024-02-13T07:48:40.920Z,17.15
2024-02-13T07:49:43.786Z,21.35
2024-02-13T07:50:45.627Z,20.50
2024-02-13T07:51:48.665Z,23.27
2024-02-13T07:52:50.449Z,16.92
2024-02-13T07:53:52.122Z,17.90
2024-02-13T07:54:55.123Z,18.52
2024-02-13T07:55:56.758Z,21.55
2024-02-13T07:56:59.483Z,21.15
2024-02-13T07:58:01.702Z,18.25
2024-02-13T07:59:05.094Z,17.88
2024-02-13T08:00:11.175Z,17.08
2024-02-13T08:01:14.007Z,18.35
2024-02-13T08:02:16.634Z,21.42
2024-02-13T08:03:21.262Z,18.02
2024-02-13T08:04:25.163Z,22.40
2024-02-13T08:05:27.066Z,19.50
2024-02-13T08:06:30.864Z,23.48
2024-02-13T08:07:34.112Z,21.98
2024-02-13T08:08:36.120Z,19.38
2024-02-13T08:09:40.175Z,20.45
2024-02-13T08:10:43.494Z,21.10
2024-02-13T08:11:45.537Z,25.08
2024-02-13T08:12:49.881Z,20.38
2024-02-13T08:13:51.481Z,21.95
2024-02-13T08:14:54.162Z,21.38
2024-02-13T08:15:55.927Z,20.98
2024-02-13T08:16:59.804Z,20.80
2024-02-13T08:18:04.469Z,19.42
2024-02-13T08:19:06.544Z,19.10
2024-02-13T08:20:11.405Z,23.40
2024-02-13T08:21:14.692Z,18.35
2024-02-13T08:22:20.475Z,20.85
2024-02-13T08:23:23.715Z,21.08
2024-02-13T08:24:25.690Z,21.98
2024-02-13T08:25:28.737Z,25.52
2024-02-13T08:26:31.065Z,20.00
2024-02-13T08:27:34.130Z,18.33
2024-02-13T08:28:36.959Z,20.85
2024-02-13T08:29:43.478Z,18.33
2024-02-13T08:30:45.450Z,21.05
2024-02-13T08:31:47.101Z,17.25
2024-02-13T08:32:50.788Z,18.20
2024-02-13T08:33:53.637Z,17.05
2024-02-13T08:34:57.171Z,19.20
2024-02-13T08:36:04.886Z,21.00
2024-02-13T08:37:06.581Z,19.38
2024-02-13T08:38:10.544Z,21.38
2024-02-13T08:39:14.278Z,18.75
2024-02-13T08:40:16.419Z,20.70
2024-02-13T08:41:19.465Z,21.52
2024-02-13T08:42:21.629Z,21.92
2024-02-13T08:43:25.161Z,16.73
2024-02-13T08:44:26.811Z,24.20
2024-02-13T08:45:30.235Z,21.85
2024-02-13T08:46:31.831Z,19.98
2024-02-13T08:47:35.430Z,17.02
2024-02-13T08:51:41.038Z,17.63
2024-02-13T08:52:43.103Z,22.63
2024-02-13T08:53:45.748Z,22.20
2024-02-13T08:54:47.631Z,18.80
2024-02-13T08:55:49.292Z,20.48
2024-02-13T08:56:50.913Z,17.55
2024-02-13T08:57:55.703Z,23.48
2024-02-13T08:58:59.891Z,21.10
2024-02-13T09:00:01.577Z,18.98
2024-02-13T09:01:03.403Z,21.77
2024-02-13T09:02:05.991Z,18.63
2024-02-13T09:03:07.627Z,22.90
2024-02-13T09:04:12.326Z,18.00
2024-02-13T09:05:14.511Z,19.70
2024-02-13T09:06:17.617Z,19.73
2024-02-13T09:07:19.598Z,20.45
2024-02-13T09:08:21.250Z,21.33
2024-02-13T09:09:22.870Z,20.20
2024-02-13T09:10:24.744Z,16.63
2024-02-13T09:11:29.489Z,20.75
2024-02-13T09:12:31.282Z,17.80
2024-02-13T09:13:33.190Z,20.83
2024-02-13T09:14:35.569Z,17.40
2024-02-13T09:15:37.779Z,15.63
2024-02-13T09:16:39.888Z,16.23
2024-02-13T09:17:46.106Z,17.70
2024-02-13T09:18:48.919Z,22.60
2024-02-13T09:19:51.066Z,18.08
2024-02-13T09:20:53.046Z,17.08
2024-02-13T09:21:54.903Z,18.17
2024-02-13T09:22:57.760Z,16.98
2024-02-13T09:23:59.698Z,17.35
2024-02-13T09:25:02.101Z,18.63
2024-02-13T09:26:05.231Z,17.35
2024-02-13T09:27:07.170Z,18.08
2024-02-13T09:28:10.455Z,15.48
2024-02-13T09:29:12.163Z,19.33
2024-02-13T09:30:14.481Z,18.02
2024-02-13T09:31:19.471Z,17.98
2024-02-13T09:32:21.147Z,17.73
2024-02-13T09:33:24.428Z,16.70
2024-02-13T09:34:27.170Z,17.90
2024-02-13T09:35:30.769Z,16.75
2024-02-13T09:36:32.718Z,16.38
2024-02-13T09:37:44.179Z,17.92
2024-02-13T09:38:46.424Z,16.15
2024-02-13T09:39:48.442Z,20.42
2024-02-13T09:40:51.209Z,17.08
2024-02-13T09:41:55.760Z,16.67
2024-02-13T09:42:57.851Z,15.80
2024-02-13T09:44:01.043Z,18.58
2024-02-13T09:45:04.820Z,16.92
2024-02-13T09:46:07.653Z,19.75
2024-02-13T09:47:13.423Z,19.75
2024-02-13T09:48:21.118Z,17.27
2024-02-13T09:49:23.612Z,18.35
2024-02-13T09:50:31.044Z,17.65
2024-02-13T09:51:38.732Z,21.13
2024-02-13T09:52:48.796Z,18.52
2024-02-13T09:53:51.307Z,15.70
2024-02-13T09:54:54.105Z,18.08
2024-02-13T09:55:59.905Z,18.45
2024-02-13T09:57:02.813Z,16.92
2024-02-13T09:58:05.284Z,15.77
2024-02-13T09:59:08.046Z,18.08
2024-02-13T10:00:11.123Z,17.60
2024-02-13T10:01:12.941Z,17.20
2024-02-13T10:02:16.441Z,15.90
2024-02-13T10:03:19.008Z,17.10
2024-02-13T10:04:20.689Z,14.10
2024-02-13T10:05:23.012Z,15.95
2024-02-13T10:06:25.637Z,18.08
2024-02-13T10:07:27.574Z,15.75
2024-02-13T10:08:32.393Z,16.30
2024-02-13T10:09:34.772Z,15.98
2024-02-13T10:10:36.432Z,14.45
2024-02-13T10:11:39.033Z,14.45
2024-02-13T10:12:50.677Z,14.35
2024-02-13T10:13:54.540Z,16.27
2024-02-13T10:14:59.757Z,15.65
2024-02-13T10:16:01.907Z,14.15
2024-02-13T10:17:15.161Z,14.15
2024-02-13T10:18:17.232Z,15.60
2024-02-13T10:19:22.816Z,15.93
2024-02-13T10:20:25.050Z,16.90
2024-02-13T10:21:28.855Z,13.77
2024-02-13T10:22:32.120Z,15.27
2024-02-13T10:23:34.719Z,14.48
2024-02-13T10:24:36.428Z,15.38
2024-02-13T10:25:39.095Z,15.82
2024-02-13T10:26:47.244Z,13.10
2024-02-13T10:27:50.632Z,14.75
2024-02-13T10:28:56.230Z,16.00
2024-02-13T10:29:59.481Z,15.85
2024-02-13T10:31:01.264Z,17.92
2024-02-13T10:32:08.831Z,15.52
2024-02-13T10:33:11.107Z,15.32
2024-02-13T10:34:13.642Z,13.88
2024-02-13T10:35:18.517Z,16.08
2024-02-13T10:36:20.549Z,15.05
2024-02-13T10:37:29.880Z,16.98
2024-02-13T10:38:33.996Z,22.50
2024-02-13T10:39:37.949Z,14.43
2024-02-13T10:40:44.549Z,14.48
2024-02-13T10:41:46.654Z,15.95
2024-02-13T10:42:51.123Z,16.05
2024-02-13T10:43:54.451Z,16.52
2024-02-13T10:45:02.980Z,15.00
2024-02-13T10:47:16.318Z,15.05
2024-02-13T10:48:47.205Z,14.50
2024-02-13T10:50:02.016Z,16.10
2024-02-13T10:51:09.896Z,13.50
2024-02-13T10:52:15.109Z,15.45
2024-02-13T10:53:17.144Z,13.93
2024-02-13T10:54:25.445Z,15.65
2024-02-13T10:55:29.135Z,16.45
2024-02-13T10:56:31.168Z,13.40
2024-02-13T10:57:38.056Z,17.75
2024-02-13T10:58:42.735Z,18.35
2024-02-13T10:59:48.753Z,16.85
2024-02-13T11:00:52.762Z,16.98
2024-02-13T11:02:00.101Z,17.55
2024-02-13T11:03:04.905Z,17.13
2024-02-13T11:04:07.135Z,16.52
2024-02-13T11:05:11.894Z,18.80
2024-02-13T11:06:16.788Z,15.85
2024-02-13T11:07:20.146Z,17.27
2024-02-13T11:08:22.361Z,14.98
2024-02-13T11:09:26.188Z,16.23
2024-02-13T11:10:35.625Z,17.40
2024-02-13T11:11:38.355Z,16.02
2024-02-13T11:12:40.926Z,16.33
2024-02-13T11:13:44.651Z,17.00
2024-02-13T11:14:47.701Z,17.25
2024-02-13T11:15:56.339Z,15.23
2024-02-13T11:17:02.117Z,14.13
2024-02-13T11:18:06.282Z,16.63
2024-02-13T11:19:12.858Z,18.05
2024-02-13T11:20:16.185Z,15.73
2024-02-13T11:21:22.970Z,16.13
2024-02-13T11:22:40.041Z,13.38
2024-02-13T11:23:54.945Z,15.90
2024-02-13T11:25:07.354Z,17.52
2024-02-13T11:26:19.852Z,17.23
2024-02-13T11:27:29.842Z,13.40
2024-02-13T11:28:43.036Z,18.08
2024-02-13T11:30:07.424Z,21.00
2024-02-13T11:31:18.813Z,19.27
2024-02-13T11:32:33.753Z,14.45
2024-02-13T11:33:39.907Z,15.35
2024-02-13T11:34:42.933Z,16.23
2024-02-13T11:35:49.207Z,14.90
2024-02-13T11:36:50.981Z,16.27
2024-02-13T11:37:54.130Z,16.20
2024-02-13T11:38:59.102Z,16.85
2024-02-13T11:40:09.297Z,23.77
2024-02-13T11:41:21.201Z,19.98
2024-02-13T11:42:25.397Z,18.48
2024-02-13T11:43:31.061Z,22.23
2024-02-13T11:44:37.656Z,23.25
2024-02-13T11:45:40.132Z,21.45
2024-02-13T11:46:55.956Z,17.05
2024-02-13T11:47:58.976Z,18.95
2024-02-13T11:49:00.892Z,18.80
2024-02-13T11:50:04.997Z,16.40
2024-02-13T11:51:08.298Z,18.30
2024-02-13T11:52:10.043Z,16.42
2024-02-13T11:53:13.671Z,16.60
2024-02-13T11:54:21.075Z,17.10
2024-02-13T11:55:23.846Z,15.73
2024-02-13T11:56:25.806Z,14.35
2024-02-13T11:57:28.021Z,13.93
2024-02-13T11:58:33.975Z,17.52
2024-02-13T11:59:36.228Z,15.43
2024-02-13T12:00:47.049Z,16.55
2024-02-13T12:01:59.593Z,15.05
2024-02-13T12:03:06.296Z,16.80
2024-02-13T12:04:13.510Z,13.85
2024-02-13T12:05:24.932Z,17.67
2024-02-13T12:07:02.973Z,16.75
2024-02-13T12:08:10.285Z,15.05
2024-02-13T12:09:17.565Z,15.52
2024-02-13T12:10:22.101Z,18.05
2024-02-13T12:11:30.178Z,16.65
2024-02-13T12:12:32.216Z,13.75
2024-02-13T12:13:35.418Z,18.23
2024-02-13T12:14:40.302Z,17.17
2024-02-13T12:15:43.061Z,17.30
2024-02-13T12:16:44.954Z,16.20
2024-02-13T12:17:55.340Z,16.60
2024-02-13T12:19:01.095Z,22.38
2024-02-13T12:20:13.219Z,14.45
2024-02-13T12:21:15.528Z,19.73
2024-02-13T12:22:19.018Z,20.23
2024-02-13T12:23:23.611Z,18.05
2024-02-13T12:24:25.193Z,17.02
2024-02-13T12:25:26.789Z,18.33
2024-02-13T12:26:32.920Z,16.13
2024-02-13T12:27:35.661Z,18.17
2024-02-13T12:28:37.835Z,16.85
2024-02-13T12:29:43.337Z,16.58
2024-02-13T12:30:49.488Z,18.23
2024-02-13T12:31:51.853Z,16.83
2024-02-13T12:32:54.285Z,18.17
2024-02-13T12:34:07.421Z,17.90
2024-02-13T12:35:23.120Z,17.77
2024-02-13T12:36:25.360Z,16.75
2024-02-13T12:37:27.044Z,16.98
2024-02-13T12:38:31.654Z,15.52
2024-02-13T12:39:33.843Z,18.95
2024-02-13T12:40:36.128Z,18.05
2024-02-13T12:41:37.871Z,15.35
2024-02-13T12:42:41.733Z,19.73
2024-02-13T12:43:44.483Z,18.48
2024-02-13T12:44:48.917Z,17.90
2024-02-13T12:45:50.845Z,15.77
2024-02-13T12:46:53.120Z,15.98
2024-02-13T12:47:57.038Z,18.52
2024-02-13T12:49:00.540Z,19.50
2024-02-13T12:50:04.327Z,20.52
2024-02-13T12:51:10.279Z,20.52
2024-02-13T12:52:18.033Z,20.60
2024-02-13T12:53:22.874Z,22.40
2024-02-13T12:54:27.736Z,22.00
2024-02-13T12:55:30.195Z,21.08
2024-02-13T12:56:32.749Z,20.65
2024-02-13T12:57:35.659Z,16.35
2024-02-13T12:58:38.576Z,19.42
2024-02-13T12:59:40.553Z,18.75
2024-02-13T13:00:46.924Z,19.23
2024-02-13T13:01:49.214Z,20.45
2024-02-13T13:02:50.941Z,17.42
2024-02-13T13:03:53.423Z,17.40
2024-02-13T13:04:55.474Z,19.98
2024-02-13T13:05:59.997Z,16.70
2024-02-13T13:07:01.884Z,19.70
2024-02-13T13:08:06.071Z,19.55
2024-02-13T13:09:20.115Z,16.92
2024-02-13T13:10:28.680Z,21.85
2024-02-13T13:11:30.898Z,17.65
2024-02-13T13:12:33.080Z,19.90
2024-02-13T13:13:35.089Z,19.20
2024-02-13T13:14:37.811Z,14.90
2024-02-13T13:15:40.295Z,19.58
2024-02-13T13:16:42.854Z,21.05
2024-02-13T13:17:45.408Z,17.92
2024-02-13T13:18:47.284Z,22.95
2024-02-13T13:19:50.385Z,17.27
2024-02-13T13:20:53.133Z,21.15
2024-02-13T13:21:55.210Z,19.17
2024-02-13T13:22:58.987Z,22.15
2024-02-13T13:24:01.846Z,17.20
2024-02-13T13:25:05.254Z,17.65
2024-02-13T13:26:09.810Z,18.92
2024-02-13T13:27:12.918Z,18.20
2024-02-13T13:28:17.841Z,19.67
2024-02-13T13:29:20.038Z,20.90
2024-02-13T13:30:22.607Z,16.15
2024-02-13T13:31:24.494Z,17.77
2024-02-13T13:32:26.509Z,16.00
2024-02-13T13:33:32.436Z,22.25
2024-02-13T13:34:34.597Z,19.08
2024-02-13T13:35:36.496Z,18.73
2024-02-13T13:36:41.373Z,15.68
2024-02-13T13:37:45.489Z,18.52
2024-02-13T13:38:51.100Z,18.42
2024-02-13T13:39:52.910Z,15.55
2024-02-13T13:40:56.273Z,19.70
2024-02-13T13:42:09.429Z,18.42
2024-02-13T13:43:12.800Z,17.55
2024-02-13T13:44:15.148Z,21.27
2024-02-13T13:45:17.078Z,19.48
2024-02-13T13:46:19.021Z,21.80
2024-02-13T13:47:20.967Z,22.33
2024-02-13T13:48:25.126Z,21.85
2024-02-13T13:49:26.978Z,20.27
2024-02-13T13:50:28.938Z,19.80
2024-02-13T13:51:31.139Z,18.88
2024-02-13T13:52:33.545Z,19.58